Time;durP1;ratioP1;P1;durP2;ratioP2;P2;SDS_P1;SDS_P2;PMS_P1;PMS_P2;Temp;Humidity;BMP_temperature;BMP_pressure;BME280_temperature;BME280_humidity;BME280_pressure;Samples;Min_cycle;Max_cycle;Signal;HPM_P1;HPM_P2
2023/10/04 00:02:11;;;;;;;;;2.00;0.33;;;;;-143.90;100.00;74771.16;4950714;28;102132;-76
2023/10/04 00:04:43;;;;;;;;;3.00;2.00;;;;;-143.90;100.00;74779.44;4921566;28;104850;-76
2023/10/04 00:07:11;;;;;;;;;2.00;1.67;;;;;-143.90;100.00;74800.09;4950686;28;102023;-76
2023/10/04 00:09:37;;;;;;;;;1.00;0.00;;;;;-143.90;100.00;74802.16;4969390;28;103722;-77
2023/10/04 00:12:05;;;;;;;;;3.00;2.00;;;;;-143.90;100.00;74800.09;4962265;28;104302;-76
2023/10/04 00:14:31;;;;;;;;;0.00;0.00;;;;;-143.90;100.00;74810.44;4974462;28;103662;-76
2023/10/04 00:17:01;;;;;;;;;2.67;1.00;;;;;-143.90;100.00;74812.50;4964253;28;102727;-76
2023/10/04 00:19:28;;;;;;;;;1.00;1.00;;;;;-143.90;100.00;74849.72;4974110;28;101888;-77
2023/10/04 00:21:55;;;;;;;;;2.00;1.00;;;;;-143.90;100.00;74829.03;4991084;28;103711;-77
2023/10/04 00:24:22;;;;;;;;;0.00;0.00;;;;;-143.90;100.00;74862.13;4958202;27;104759;-76
2023/10/04 00:26:48;;;;;;;;;0.00;0.00;;;;;-143.90;100.00;74845.59;4980420;28;101928;-76
2023/10/04 00:29:17;;;;;;;;;0.00;0.00;;;;;-143.90;100.00;74851.78;4972375;28;101905;-76
2023/10/04 00:31:46;;;;;;;;;0.33;0.00;;;;;-143.90;100.00;74870.38;4974702;28;104572;-76
2023/10/04 00:34:13;;;;;;;;;0.33;0.33;;;;;-143.90;100.00;74874.53;4974910;27;104038;-76
2023/10/04 00:36:40;;;;;;;;;0.00;0.00;;;;;-143.90;100.00;74874.53;4976114;28;101706;-76
2023/10/04 00:39:07;;;;;;;;;0.00;0.00;;;;;-143.90;100.00;74878.66;4968422;28;101592;-77
2023/10/04 00:41:35;;;;;;;;;0.67;0.67;;;;;-143.90;100.00;74889.00;4976989;28;102083;-77
2023/10/04 00:44:09;;;;;;;;;0.00;0.00;;;;;-143.90;100.00;74889.00;4953478;28;107919;-76
2023/10/04 00:46:38;;;;;;;;;0.00;0.00;;;;;-143.90;100.00;74903.47;4956070;28;101965;-76
2023/10/04 00:49:06;;;;;;;;;1.00;1.00;;;;;-143.90;100.00;74922.06;4943300;28;103261;-77
2023/10/04 00:51:36;;;;;;;;;5.00;1.00;;;;;-143.90;100.00;74936.53;4957210;28;101710;-77
2023/10/04 00:54:07;;;;;;;;;1.00;1.00;;;;;-143.90;100.00;74953.09;4963049;28;103743;-77
2023/10/04 00:56:38;;;;;;;;;3.00;2.00;;;;;-143.90;100.00;74967.56;4951236;28;101733;-76
2023/10/04 00:59:07;;;;;;;;;2.50;2.50;;;;;-143.90;100.00;74990.28;4924564;28;102041;-77
2023/10/04 01:01:34;;;;;;;;;0.33;0.33;;;;;-143.90;100.00;75002.69;4958511;28;101704;-76
2023/10/04 01:04:02;;;;;;;;;1.00;1.00;;;;;-143.90;100.00;75006.84;4956529;28;105197;-76
2023/10/04 01:06:30;;;;;;;;;2.67;1.67;;;;;-143.90;100.00;75006.84;4953023;28;101767;-75
2023/10/04 01:08:58;;;;;;;;;2.00;1.67;;;;;-143.90;100.00;75021.31;4957019;28;102133;-76
2023/10/04 01:11:24;;;;;;;;;1.00;1.00;;;;;-143.90;100.00;75035.78;4965008;28;101820;-76
2023/10/04 01:14:01;;;;;;;;;1.00;0.00;;;;;-143.90;100.00;75046.09;4957517;28;103239;-76
2023/10/04 01:16:28;;;;;;;;;2.00;1.00;;;;;-143.90;100.00;75048.19;4961572;28;101582;-75
2023/10/04 01:18:59;;;;;;;;;1.00;1.00;;;;;-143.90;100.00;75068.84;4920848;28;101642;-76
2023/10/04 01:21:29;;;;;;;;;3.75;2.25;;;;;-143.90;100.00;75072.97;4927359;27;101878;-76
2023/10/04 01:23:57;;;;;;;;;1.50;1.50;;;;;-143.90;100.00;75072.97;4977504;28;102610;-76
2023/10/04 01:26:26;;;;;;;;;1.50;1.00;;;;;-143.90;100.00;75083.31;4944047;28;101774;-76
2023/10/04 01:28:53;;;;;;;;;1.00;1.00;;;;;-143.90;100.00;75097.78;4963876;28;103942;-75
2023/10/04 01:31:19;;;;;;;;;1.00;1.00;;;;;-143.90;100.00;75089.53;4969569;28;101688;-78
2023/10/04 01:33:48;;;;;;;;;1.50;1.50;;;;;-143.90;100.00;75118.47;4946260;28;104965;-77
2023/10/04 01:36:17;;;;;;;;;1.50;1.00;;;;;-143.90;100.00;75101.94;4978582;28;101411;-77
2023/10/04 01:38:47;;;;;;;;;1.00;1.00;;;;;-143.90;100.00;75101.94;4974386;28;101573;-77
2023/10/04 01:41:17;;;;;;;;;2.25;1.25;;;;;-143.90;100.00;75124.66;4978775;28;101774;-81
2023/10/04 01:43:43;;;;;;;;;3.50;1.75;;;;;-143.90;100.00;75118.47;4952324;28;107859;-75
2023/10/04 01:46:10;;;;;;;;;1.00;0.00;;;;;-143.90;100.00;75143.28;4955019;28;102175;-77
2023/10/04 01:48:37;;;;;;;;;2.00;1.50;;;;;-143.90;100.00;75147.41;4966613;28;102016;-75
2023/10/04 01:51:04;;;;;;;;;1.75;1.00;;;;;-143.90;100.00;75141.22;4958352;28;103320;-76
2023/10/04 01:53:36;;;;;;;;;1.00;1.00;;;;;-143.90;100.00;75139.16;4964312;28;102357;-77
2023/10/04 01:56:06;;;;;;;;;0.50;0.50;;;;;-143.90;100.00;75141.22;4963136;28;101723;-76
2023/10/04 01:58:33;;;;;;;;;4.00;2.00;;;;;-143.90;100.00;75151.53;4970784;28;101584;-77
2023/10/04 02:01:00;;;;;;;;;1.00;1.00;;;;;-143.90;100.00;75163.94;4943741;28;103375;-75
2023/10/04 02:03:27;;;;;;;;;2.00;2.00;;;;;-143.90;100.00;75172.22;4973097;27;103431;-74
2023/10/04 02:05:56;;;;;;;;;2.00;2.00;;;;;-143.90;100.00;75161.88;4942862;28;101687;-75
2023/10/04 02:08:24;;;;;;;;;2.00;1.75;;;;;-143.90;100.00;75174.28;4976043;28;102845;-76
2023/10/04 02:10:52;;;;;;;;;0.00;0.00;;;;;-143.90;100.00;75174.28;4954366;28;101563;-76
2023/10/04 02:13:19;;;;;;;;;3.25;3.25;;;;;-143.90;100.00;75186.69;4948828;28;104751;-76
2023/10/04 02:15:52;;;;;;;;;3.00;3.00;;;;;-143.90;100.00;75197.03;4916860;28;102303;-76
2023/10/04 02:18:20;;;;;;;;;2.00;2.00;;;;;-143.90;100.00;75194.97;4956747;28;101982;-76
2023/10/04 02:20:48;;;;;;;;;2.00;1.50;;;;;-143.90;100.00;75203.22;4970531;28;101726;-77
2023/10/04 02:23:16;;;;;;;;;5.25;3.00;;;;;-143.90;100.00;75205.28;4945941;28;104693;-76
2023/10/04 02:25:44;;;;;;;;;2.00;2.00;;;;;-143.90;100.00;75213.56;4967619;28;102217;-74
2023/10/04 02:28:11;;;;;;;;;3.00;3.00;;;;;-143.90;100.00;75221.84;4934262;28;101945;-76
2023/10/04 02:30:38;;;;;;;;;2.75;2.00;;;;;-143.90;100.00;75219.78;4949282;28;101706;-75
2023/10/04 02:33:14;;;;;;;;;4.00;3.00;;;;;-143.90;100.00;75230.09;4932069;27;103490;-75
2023/10/04 02:35:45;;;;;;;;;1.00;1.00;;;;;-143.90;100.00;75242.50;4962456;28;101715;-76
2023/10/04 02:38:23;;;;;;;;;1.00;1.00;;;;;-143.90;100.00;75236.31;4973731;28;102718;-76
2023/10/04 02:40:51;;;;;;;;;4.00;4.00;;;;;-143.90;100.00;75252.84;4964043;28;102292;-78
2023/10/04 02:43:25;;;;;;;;;2.00;2.00;;;;;-143.90;100.00;75250.78;4949222;28;103578;-76
2023/10/04 02:45:53;;;;;;;;;2.00;2.00;;;;;-143.90;100.00;75238.38;4962007;28;101591;-77
2023/10/04 02:48:20;;;;;;;;;3.00;2.00;;;;;-143.90;100.00;75242.50;4943873;27;103722;-77
2023/10/04 02:50:47;;;;;;;;;2.00;2.00;;;;;-143.90;100.00;75256.97;4915461;28;101839;-76
2023/10/04 02:53:17;;;;;;;;;2.00;2.00;;;;;-143.90;100.00;75265.25;4951442;28;103422;-76
2023/10/04 02:55:46;;;;;;;;;3.00;3.00;;;;;-143.90;100.00;75281.78;4977268;28;101646;-76
2023/10/04 02:58:16;;;;;;;;;2.50;2.00;;;;;-143.90;100.00;75298.34;4936466;28;103869;-77
2023/10/04 03:00:46;;;;;;;;;3.25;3.00;;;;;-143.90;100.00;75323.16;4907568;28;103182;-77
2023/10/04 03:03:13;;;;;;;;;3.25;3.00;;;;;-143.90;100.00;75331.41;4971847;28;104650;-77
2023/10/04 03:05:44;;;;;;;;;4.00;4.00;;;;;-143.90;100.00;75333.47;4946263;28;101962;-77
2023/10/04 03:08:17;;;;;;;;;2.75;2.75;;;;;-143.90;100.00;75343.81;4951255;28;101981;-76
2023/10/04 03:10:49;;;;;;;;;4.00;4.00;;;;;-143.90;100.00;75337.63;4942443;28;102376;-76
2023/10/04 03:13:24;;;;;;;;;3.75;3.75;;;;;-143.90;100.00;75337.63;4976300;28;103637;-77
2023/10/04 03:15:53;;;;;;;;;6.00;6.00;;;;;-143.90;100.00;75358.28;4973259;28;101549;-76
2023/10/04 03:18:20;;;;;;;;;3.00;3.00;;;;;-143.90;100.00;75370.69;4964598;28;102091;-75
2023/10/04 03:23:34;;;;;;;;;3.00;2.25;;;;;-143.90;99.85;75378.97;4973401;28;104033;-77
2023/10/04 03:26:06;;;;;;;;;3.00;3.00;;;;;-143.90;99.16;75378.97;4988718;28;103109;-79
2023/10/04 03:28:35;;;;;;;;;1.50;1.25;;;;;-143.90;99.93;75374.84;4969202;28;101692;-77
2023/10/04 03:31:03;;;;;;;;;2.50;1.00;;;;;-143.90;99.35;75378.97;4974430;28;101829;-76
2023/10/04 03:33:35;;;;;;;;;1.00;0.75;;;;;-143.90;99.10;75383.09;4977674;28;107919;-76
2023/10/04 03:36:04;;;;;;;;;1.75;1.75;;;;;-143.90;99.32;75374.84;4972531;28;101920;-76
2023/10/04 03:38:34;;;;;;;;;2.50;2.00;;;;;-143.90;99.65;75391.38;4970289;28;101605;-75
2023/10/04 03:41:03;;;;;;;;;2.00;2.00;;;;;-143.90;99.25;75405.84;4968871;28;101896;-76
2023/10/04 03:43:31;;;;;;;;;3.00;2.00;;;;;-143.90;98.59;75405.84;4970952;28;103218;-76
2023/10/04 03:46:03;;;;;;;;;4.00;3.00;;;;;-143.90;99.17;75424.44;4970643;28;101728;-77
2023/10/04 03:48:30;;;;;;;;;4.00;3.00;;;;;-143.90;99.19;75416.19;4977022;28;101721;-76
2023/10/04 03:50:57;;;;;;;;;2.00;2.00;;;;;-143.90;98.23;75430.66;4977034;28;102870;-76
2023/10/04 03:53:26;;;;;;;;;2.00;2.00;;;;;-143.90;99.93;75441.00;4972623;28;104476;-77
2023/10/04 03:55:55;;;;;;;;;3.00;2.00;;;;;-143.90;99.08;75438.94;4961375;28;101592;-76
2023/10/04 03:58:23;;;;;;;;;2.50;2.00;;;;;-143.90;98.97;75459.59;4936169;28;101610;-76
2023/10/04 04:00:50;;;;;;;;;2.75;2.75;;;;;-143.90;98.13;75447.19;4956470;28;101949;-75
2023/10/04 04:03:18;;;;;;;;;2.00;1.00;;;;;-143.90;97.50;75447.19;4959539;28;104754;-75
2023/10/04 04:05:50;;;;;;;;;2.00;2.00;;;;;-143.90;97.32;75445.13;4968690;28;102241;-77
2023/10/04 04:08:17;;;;;;;;;1.75;1.75;;;;;-143.90;97.30;75455.47;4977143;28;101994;-76
2023/10/04 04:10:46;;;;;;;;;1.00;1.00;;;;;-143.90;97.22;75469.94;4965371;28;101734;-77
2023/10/04 04:13:13;;;;;;;;;2.00;2.00;;;;;-143.90;97.13;75494.75;4956694;28;102401;-76
2023/10/04 04:15:42;;;;;;;;;2.00;2.00;;;;;-143.90;97.18;75503.03;4970706;27;102049;-76
2023/10/04 04:18:15;;;;;;;;;1.75;1.75;;;;;-143.90;95.73;75507.16;4968484;28;103256;-76
2023/10/04 04:20:42;;;;;;;;;1.00;1.00;;;;;-143.90;95.23;75496.81;4964983;28;104689;-75
2023/10/04 04:23:10;;;;;;;;;2.50;2.50;;;;;-143.90;95.24;75507.16;4951716;28;105515;-76
2023/10/04 04:25:38;;;;;;;;;1.00;1.00;;;;;-143.90;95.01;75507.16;4977439;28;102524;-77
2023/10/04 04:28:07;;;;;;;;;1.50;1.50;;;;;-143.90;94.76;75511.28;4945156;28;102684;-75
2023/10/04 04:30:35;;;;;;;;;1.00;1.00;;;;;-143.90;95.52;75519.56;4959934;28;102591;-75
2023/10/04 04:33:04;;;;;;;;;4.00;3.00;;;;;-143.90;95.54;75519.56;4962688;28;104090;-77
2023/10/04 04:40:44;;;;;;;;;2.00;1.00;;;;;-143.90;95.08;75540.22;4950354;28;102146;-76
2023/10/04 04:43:36;;;;;;;;;2.00;2.00;;;;;-143.90;94.35;75540.22;4961264;28;108908;-76
2023/10/04 04:46:01;;;;;;;;;2.00;2.00;;;;;-143.90;94.64;75552.63;4952409;28;101946;-77
2023/10/04 04:48:31;;;;;;;;;2.00;2.00;;;;;-143.90;94.96;75581.59;4957495;28;102029;-76
2023/10/04 04:53:35;;;;;;;;;3.00;2.25;;;;;-143.90;95.38;75567.13;4959439;28;104670;-77
2023/10/04 04:56:02;;;;;;;;;1.00;0.50;;;;;-143.90;95.71;75573.31;4952546;28;103210;-76
2023/10/04 04:58:30;;;;;;;;;3.25;3.00;;;;;-143.90;95.77;75577.44;4964363;27;102051;-76
2023/10/04 05:01:00;;;;;;;;;3.00;2.00;;;;;-143.90;96.19;75569.19;4969465;28;102004;-76
2023/10/04 05:03:27;;;;;;;;;2.75;2.00;;;;;-143.90;95.80;75579.53;4966774;27;104904;-77
2023/10/04 05:05:57;;;;;;;;;2.00;2.00;;;;;-143.90;95.27;75585.72;4964216;28;103547;-76
2023/10/04 05:08:27;;;;;;;;;1.25;1.25;;;;;-143.90;96.06;75581.59;4957969;28;102295;-77
2023/10/04 05:10:55;;;;;;;;;3.00;3.00;;;;;-143.90;96.15;75581.59;4964221;28;103638;-78
2023/10/04 05:13:22;;;;;;;;;0.50;0.25;;;;;-143.90;94.86;75585.72;4954970;28;104102;-77
2023/10/04 05:15:49;;;;;;;;;2.00;2.00;;;;;-143.90;95.33;75610.53;4956522;28;102036;-78
2023/10/04 05:18:18;;;;;;;;;1.00;1.00;;;;;-143.90;95.61;75602.25;4974344;28;101964;-75
2023/10/04 05:20:54;;;;;;;;;1.50;1.50;;;;;-143.90;95.05;75618.81;4955741;28;102291;-75
2023/10/04 05:23:22;;;;;;;;;1.00;1.00;;;;;-143.90;94.96;75602.25;4953216;28;103460;-75
2023/10/04 05:25:53;;;;;;;;;2.00;2.00;;;;;-143.90;94.68;75625.00;4963036;28;102212;-75
2023/10/04 05:28:24;;;;;;;;;2.00;1.25;;;;;-143.90;95.35;75635.34;4943504;28;101960;-76
2023/10/04 05:30:51;;;;;;;;;3.00;3.00;;;;;-143.90;94.63;75645.69;4949226;28;102412;-76
2023/10/04 05:33:20;;;;;;;;;1.75;1.00;;;;;-143.90;94.77;75647.75;4957177;28;109412;-76
2023/10/04 05:35:53;;;;;;;;;3.00;3.00;;;;;-143.90;94.32;75649.81;4954582;28;103048;-74
2023/10/04 05:38:20;;;;;;;;;2.75;2.50;;;;;-143.90;94.65;75656.03;4950031;28;102171;-76
2023/10/04 05:40:47;;;;;;;;;2.25;2.25;;;;;-143.90;94.43;75660.16;4960662;28;102341;-75
2023/10/04 05:43:16;;;;;;;;;4.00;3.25;;;;;-143.90;95.05;75662.22;4957237;28;105108;-78
2023/10/04 05:45:45;;;;;;;;;2.25;2.00;;;;;-143.90;95.77;75668.44;4949337;28;105245;-74
2023/10/04 05:48:14;;;;;;;;;4.00;2.25;;;;;-143.90;95.60;75668.44;4948630;28;102315;-78
2023/10/04 05:50:40;;;;;;;;;3.00;2.00;;;;;-143.90;94.95;75668.44;4964491;28;101996;-76
2023/10/04 05:53:08;;;;;;;;;4.00;4.00;;;;;-143.90;94.37;75666.34;4965862;27;103711;-74
2023/10/04 05:55:37;;;;;;;;;2.00;2.00;;;;;-143.90;94.47;75662.22;4968071;28;102027;-76
2023/10/04 05:58:08;;;;;;;;;3.25;2.25;;;;;-143.90;94.79;75668.44;4957929;28;101887;-78
2023/10/04 06:00:42;;;;;;;;;4.00;3.50;;;;;-143.90;94.40;75664.28;4968266;28;101979;-75
2023/10/04 06:03:15;;;;;;;;;3.00;2.00;;;;;-143.90;94.24;75662.22;4956385;28;103996;-75
2023/10/04 06:05:43;;;;;;;;;3.75;2.00;;;;;-143.90;95.03;75651.88;4964110;28;102241;-75
2023/10/04 06:08:15;;;;;;;;;3.00;3.00;;;;;-143.90;94.51;75670.50;4965378;28;102269;-79
2023/10/04 06:10:43;;;;;;;;;1.50;1.50;;;;;-143.90;94.25;75658.09;4982825;28;102105;-75
2023/10/04 06:13:13;;;;;;;;;3.50;2.00;;;;;-143.90;94.56;75651.88;4964825;28;104331;-75
2023/10/04 06:15:48;;;;;;;;;2.25;2.00;;;;;-143.90;93.60;75647.75;4963893;28;101884;-75
2023/10/04 06:18:16;;;;;;;;;1.00;1.00;;;;;-143.90;93.88;75631.22;4963355;28;101936;-75
2023/10/04 06:20:44;;;;;;;;;1.00;1.00;;;;;-143.90;92.66;75637.41;4962399;28;104603;-74
2023/10/04 06:23:14;;;;;;;;;2.00;2.00;;;;;-143.90;92.44;75647.75;4966461;28;103025;-76
2023/10/04 06:25:44;;;;;;;;;1.00;1.00;;;;;-143.90;92.87;75625.00;4969783;28;101917;-75
2023/10/04 06:28:11;;;;;;;;;1.25;1.00;;;;;-143.90;91.85;75633.28;4969421;28;104112;-75
2023/10/04 06:30:40;;;;;;;;;1.50;1.50;;;;;-143.90;91.15;75639.47;4970418;28;102208;-76
2023/10/04 06:33:09;;;;;;;;;2.00;2.00;;;;;-143.90;90.60;75614.66;4960567;28;104026;-74
2023/10/04 06:35:37;;;;;;;;;2.00;1.25;;;;;-143.90;89.97;75631.22;4961661;28;102304;-77
2023/10/04 06:38:07;;;;;;;;;1.00;1.00;;;;;-143.90;91.28;75616.72;4978547;28;102193;-74
2023/10/04 06:40:35;;;;;;;;;1.00;1.00;;;;;-143.90;90.14;75618.81;4960691;28;102311;-75
2023/10/04 06:43:06;;;;;;;;;1.25;1.25;;;;;-143.90;89.51;75612.59;4963041;28;103956;-75
2023/10/04 06:45:35;;;;;;;;;0.25;0.25;;;;;-143.90;89.76;75614.66;4964333;28;102572;-75
2023/10/04 06:48:06;;;;;;;;;1.50;1.50;;;;;-143.90;89.16;75618.81;4959534;28;102043;-77
2023/10/04 06:50:43;;;;;;;;;2.00;2.00;;;;;-143.90;89.81;75602.25;4962987;28;102500;-74
2023/10/04 06:53:10;;;;;;;;;2.00;2.00;;;;;-143.90;88.62;75610.53;4953445;28;109042;-77
2023/10/04 06:55:37;;;;;;;;;4.00;2.50;;;;;-143.90;89.08;75606.41;4966699;28;101941;-74
2023/10/04 06:58:06;;;;;;;;;1.50;1.00;;;;;-143.90;88.70;75583.66;4964155;28;104705;-74
2023/10/04 07:00:37;;;;;;;;;0.75;0.50;;;;;-143.90;88.53;75571.25;4963086;28;103310;-75
2023/10/04 07:03:04;;;;;;;;;1.00;1.00;;;;;-143.90;88.10;75560.91;4984128;28;103884;-76
2023/10/04 07:05:39;;;;;;;;;1.50;1.00;;;;;-143.90;87.86;75552.63;4964804;28;102109;-75
2023/10/04 07:08:09;;;;;;;;;0.00;0.00;;;;;-143.90;87.56;75540.22;4973447;28;103420;-75
2023/10/04 07:10:36;;;;;;;;;2.00;1.00;;;;;-143.90;87.87;75527.81;4962802;28;102100;-75
2023/10/04 07:13:05;;;;;;;;;1.00;0.00;;;;;-143.90;87.29;75534.03;4968181;28;103790;-75
2023/10/04 07:15:39;;;;;;;;;2.00;1.75;;;;;-143.90;87.11;75523.69;4968868;28;102751;-76
2023/10/04 07:18:09;;;;;;;;;0.75;0.00;;;;;-143.90;85.37;75536.09;4964929;28;102201;-74
2023/10/04 07:20:38;;;;;;;;;1.75;1.00;;;;;-143.90;87.10;75527.81;4963005;28;102005;-74
2023/10/04 07:23:08;;;;;;;;;1.00;1.00;;;;;-143.90;85.27;75519.56;4966036;28;104008;-75
2023/10/04 07:25:37;;;;;;;;;1.50;1.00;;;;;-143.90;85.06;75515.41;4966423;28;101921;-74
2023/10/04 07:28:08;;;;;;;;;2.00;2.00;;;;;-143.90;83.11;75505.09;4962499;28;102108;-75
2023/10/04 07:30:37;;;;;;;;;1.00;1.00;;;;;-143.90;83.95;75480.28;4971909;28;102265;-75
2023/10/04 07:33:04;;;;;;;;;2.00;2.00;;;;;-143.90;83.73;75478.22;4970831;28;104633;-76
2023/10/04 07:35:33;;;;;;;;;1.75;1.00;;;;;-143.90;81.41;75486.47;4968715;28;102337;-76
2023/10/04 07:38:00;;;;;;;;;1.00;0.50;;;;;-143.90;82.74;75478.22;4961031;28;102032;-76
2023/10/04 07:40:30;;;;;;;;;1.00;0.75;;;;;-143.90;81.86;75447.19;4969056;28;102656;-76
2023/10/04 07:42:59;;;;;;;;;2.00;1.00;;;;;-143.90;77.39;75461.66;4964765;28;104267;-76
2023/10/04 07:45:28;;;;;;;;;2.00;2.00;;;;;-143.90;78.55;75474.06;4959859;28;102065;-76
2023/10/04 07:47:56;;;;;;;;;2.25;2.00;;;;;-143.90;78.72;75465.81;4970681;28;102168;-75
2023/10/04 07:50:24;;;;;;;;;0.25;0.25;;;;;-143.90;79.98;75434.78;4962665;28;102211;-76
2023/10/04 07:52:54;;;;;;;;;1.00;1.00;;;;;-143.90;80.03;75412.03;4961486;28;104076;-76
2023/10/04 07:55:22;;;;;;;;;0.00;0.00;;;;;-143.90;76.85;75387.22;4946067;28;102080;-75
2023/10/04 07:57:53;;;;;;;;;1.00;0.00;;;;;-143.90;78.58;75366.56;4961237;28;102260;-76
2023/10/04 08:00:20;;;;;;;;;2.00;2.00;;;;;-143.90;75.30;75370.69;4985003;28;102426;-76
2023/10/04 08:02:52;;;;;;;;;1.00;1.00;;;;;-143.90;76.36;75364.50;4965509;28;104011;-76
2023/10/04 08:05:23;;;;;;;;;1.00;1.00;;;;;-143.90;72.81;75383.09;4963502;28;102367;-76
2023/10/04 08:07:52;;;;;;;;;2.00;1.67;;;;;-143.90;72.78;75374.84;4964165;28;102342;-75
2023/10/04 08:10:25;;;;;;;;;2.00;2.00;;;;;-143.90;73.84;75385.16;4945462;28;102362;-75
2023/10/04 08:12:54;;;;;;;;;1.50;1.50;;;;;-143.90;73.21;75387.22;4961977;28;102830;-74
2023/10/04 08:15:25;;;;;;;;;1.67;1.00;;;;;-143.90;73.41;75397.56;4961353;28;101828;-74
2023/10/04 08:17:58;;;;;;;;;1.00;1.00;;;;;-143.90;72.76;75407.91;4958618;28;103200;-76
2023/10/04 08:20:29;;;;;;;;;2.00;1.00;;;;;-143.90;73.14;75409.97;4970183;28;102261;-75
2023/10/04 08:22:57;;;;;;;;;2.00;1.00;;;;;-143.90;71.49;75424.44;4961928;28;106383;-75
2023/10/04 08:25:27;;;;;;;;;1.00;1.00;;;;;-143.90;74.52;75416.19;4968579;28;102305;-75
2023/10/04 08:27:55;;;;;;;;;2.50;1.25;;;;;-143.90;72.29;75399.63;4973307;28;103239;-76
2023/10/04 08:30:22;;;;;;;;;2.67;2.00;;;;;-143.90;72.65;75383.09;4970576;28;102166;-75
2023/10/04 08:32:51;;;;;;;;;2.00;2.00;;;;;-143.90;71.16;75368.63;4962876;28;104228;-75
2023/10/04 08:35:23;;;;;;;;;2.00;2.00;;;;;-143.90;70.39;75366.56;4970827;28;102022;-76
2023/10/04 08:37:57;;;;;;;;;2.00;2.00;;;;;-143.90;70.02;75383.09;4968938;28;102480;-74
2023/10/04 08:40:27;;;;;;;;;2.00;1.50;;;;;-143.90;70.47;75360.34;4966855;28;102295;-74
2023/10/04 08:42:55;;;;;;;;;1.00;1.00;;;;;-143.90;68.07;75354.16;4968881;28;103373;-73
2023/10/04 08:45:24;;;;;;;;;1.00;1.00;;;;;-143.90;69.35;75360.34;4966485;28;101985;-74
2023/10/04 08:47:52;;;;;;;;;1.00;1.00;;;;;-143.90;68.63;75370.69;4969126;28;102057;-74
2023/10/04 08:50:30;;;;;;;;;1.00;1.00;;;;;-143.90;67.32;75395.50;4981959;28;102302;-73
2023/10/04 08:53:46;;;;;;;;;1.00;1.00;;;;;-143.90;67.28;75381.03;4968496;28;104288;-76
2023/10/04 08:56:14;;;;;;;;;1.00;1.00;;;;;-143.90;68.80;75383.09;4962468;28;105795;-75
2023/10/04 08:58:45;;;;;;;;;1.00;1.00;;;;;-143.90;66.96;75337.63;4964994;28;102552;-74
2023/10/04 09:01:15;;;;;;;;;1.33;1.00;;;;;-143.90;63.61;75325.22;4966390;28;102232;-75
2023/10/04 09:03:44;;;;;;;;;0.67;0.67;;;;;-143.90;60.99;75292.13;4948963;28;108637;-74
2023/10/04 09:06:14;;;;;;;;;1.00;1.00;;;;;-143.90;60.58;75281.78;4973448;28;102116;-74
2023/10/04 09:08:41;;;;;;;;;1.33;1.00;;;;;-143.90;57.58;75316.94;4958050;28;103267;-76
2023/10/04 09:11:11;;;;;;;;;1.67;1.00;;;;;-143.90;56.84;75331.41;4974613;28;102109;-81
2023/10/04 09:13:43;;;;;;;;;1.00;1.00;;;;;-143.90;57.58;75352.09;4968032;28;109008;-76
2023/10/04 09:16:30;;;;;;;;;1.00;1.00;;;;;-143.90;57.19;75362.44;4964344;28;102328;-79
2023/10/04 09:19:17;;;;;;;;;0.67;0.00;;;;;-143.90;57.70;75374.84;4966829;28;102019;-75
2023/10/04 09:21:45;;;;;;;;;2.00;1.00;;;;;-143.90;58.40;75383.09;4971603;28;103831;-77
2023/10/04 09:24:14;;;;;;;;;0.67;0.00;;;;;-143.90;58.97;75366.56;4968379;28;108776;-77
2023/10/04 09:26:52;;;;;;;;;3.00;1.00;;;;;-143.90;59.08;75381.03;4953706;28;102096;-77
2023/10/04 09:29:36;;;;;;;;;0.33;0.33;;;;;-143.90;58.54;75362.44;4953759;28;102717;-76
2023/10/04 09:32:05;;;;;;;;;0.00;0.00;;;;;-143.90;59.84;75354.16;4949769;28;106496;-76
2023/10/04 09:34:35;;;;;;;;;1.00;1.00;;;;;-143.90;57.83;75343.81;4935794;28;105729;-77
2023/10/04 09:37:18;;;;;;;;;0.00;0.00;;;;;-143.90;60.29;75329.34;4955074;28;102347;-76
2023/10/04 09:39:45;;;;;;;;;1.33;1.33;;;;;-143.90;58.60;75312.81;4958575;28;102076;-76
2023/10/04 09:42:14;;;;;;;;;1.33;1.00;;;;;-143.90;60.68;75267.31;4968897;27;102093;-76
2023/10/04 09:44:41;;;;;;;;;1.00;0.33;;;;;-143.90;57.21;75267.31;4956493;28;108635;-77
2023/10/04 09:47:09;;;;;;;;;1.67;1.67;;;;;-143.90;59.68;75254.91;4950137;28;102161;-77
2023/10/04 09:49:37;;;;;;;;;1.00;1.00;;;;;-143.90;57.97;75256.97;4965198;28;102275;-76
2023/10/04 09:52:10;;;;;;;;;1.00;1.00;;;;;-143.90;57.82;75223.91;4967664;28;103009;-76
2023/10/04 09:54:37;;;;;;;;;2.00;1.00;;;;;-143.90;57.55;75203.22;4990263;28;104221;-76
2023/10/04 09:57:10;;;;;;;;;1.33;1.33;;;;;-143.90;58.44;75153.63;4967253;28;102307;-76
2023/10/04 09:59:38;;;;;;;;;2.00;1.00;;;;;-143.90;56.41;75153.63;4962664;28;102160;-75
2023/10/04 10:02:09;;;;;;;;;2.67;2.00;;;;;-143.90;57.04;75163.94;4955754;28;102186;-75
2023/10/04 10:04:46;;;;;;;;;2.00;2.00;;;;;-143.90;54.86;75211.50;4953607;28;105350;-79
2023/10/04 10:07:20;;;;;;;;;2.00;1.00;;;;;-143.90;55.62;75230.09;4964236;28;102377;-77
2023/10/04 10:09:46;;;;;;;;;2.67;2.67;;;;;-143.90;55.84;75234.25;4930412;28;102890;-77
2023/10/04 10:12:33;;;;;;;;;3.00;1.00;;;;;-143.90;56.32;75217.69;4963598;28;102860;-77
2023/10/04 10:15:01;;;;;;;;;1.00;1.00;;;;;-143.90;55.45;75213.56;4961272;28;103264;-77
2023/10/04 10:17:30;;;;;;;;;1.00;1.00;;;;;-143.90;53.66;75199.09;4957977;28;102058;-77
2023/10/04 10:19:59;;;;;;;;;2.00;2.00;;;;;-143.90;55.58;75178.41;4952770;28;102310;-75
2023/10/04 10:22:26;;;;;;;;;3.00;2.33;;;;;-143.90;54.99;75213.56;4954935;28;102254;-76
2023/10/04 10:24:56;;;;;;;;;2.00;1.00;;;;;-143.90;55.87;75186.69;4953722;28;104200;-77
2023/10/04 10:27:25;;;;;;;;;2.00;1.00;;;;;-143.90;55.05;75180.50;4961401;28;102373;-77
2023/10/04 10:29:52;;;;;;;;;2.00;2.00;;;;;-143.90;54.27;75163.94;4965951;28;102056;-76
2023/10/04 10:32:23;;;;;;;;;1.00;1.00;;;;;-143.90;55.29;75168.09;4967676;28;102276;-76
2023/10/04 10:34:52;;;;;;;;;1.00;1.00;;;;;-143.90;54.07;75151.53;4965373;28;104233;-77
2023/10/04 10:37:23;;;;;;;;;1.00;1.00;;;;;-143.90;51.85;75170.16;4948102;28;102514;-77
2023/10/04 10:39:53;;;;;;;;;2.00;1.00;;;;;-143.90;53.08;75180.50;4964159;28;102239;-76
2023/10/04 10:42:20;;;;;;;;;3.33;2.00;;;;;-143.90;53.68;75209.44;4970040;28;102361;-77
2023/10/04 10:44:50;;;;;;;;;1.33;1.00;;;;;-143.90;53.39;75155.69;4960740;28;105327;-76
2023/10/04 10:47:21;;;;;;;;;0.00;0.00;;;;;-143.90;53.80;75149.47;4956496;28;102335;-75
2023/10/04 10:49:55;;;;;;;;;1.00;1.00;;;;;-143.90;53.21;75180.50;4968352;28;102204;-77
2023/10/04 10:52:31;;;;;;;;;2.00;1.00;;;;;-143.90;53.90;75176.34;4958600;28;101946;-78
2023/10/04 10:54:59;;;;;;;;;2.00;2.00;;;;;-143.90;52.76;75168.09;4954220;28;104376;-76
2023/10/04 10:57:28;;;;;;;;;1.00;1.00;;;;;-143.90;54.54;75215.63;4964588;28;102048;-76
2023/10/04 11:00:11;;;;;;;;;3.00;2.33;;;;;-143.90;52.61;75234.25;4965755;28;102356;-79
2023/10/04 11:02:38;;;;;;;;;1.33;1.33;;;;;-143.90;52.56;75238.38;4965497;28;102371;-76
2023/10/04 11:05:08;;;;;;;;;2.00;1.00;;;;;-143.90;52.95;75219.78;4964475;28;103817;-75
2023/10/04 11:07:37;;;;;;;;;2.67;2.00;;;;;-143.90;52.88;75213.56;4981596;28;102664;-77
2023/10/04 11:10:05;;;;;;;;;4.00;3.00;;;;;-143.90;52.97;75184.63;4967108;27;102511;-77
2023/10/04 11:12:50;;;;;;;;;3.00;3.00;;;;;-143.90;53.52;75192.91;4966462;28;102264;-75
2023/10/04 11:15:20;;;;;;;;;1.67;1.00;;;;;-143.90;54.23;75139.16;4957674;28;107612;-75
2023/10/04 11:17:47;;;;;;;;;1.00;1.00;;;;;-143.90;50.82;75139.16;4973201;28;103209;-80
2023/10/04 11:20:17;;;;;;;;;2.00;1.00;;;;;-143.90;50.61;75139.16;4968358;28;102049;-77
2023/10/04 11:22:45;;;;;;;;;2.00;2.00;;;;;-143.90;51.26;75114.34;4964862;28;108954;-73
2023/10/04 11:25:16;;;;;;;;;0.00;0.00;;;;;-143.90;51.59;75095.72;4965764;28;103573;-76
2023/10/04 11:27:46;;;;;;;;;2.00;2.00;;;;;-143.90;52.78;75104.00;4971355;28;101839;-76
2023/10/04 11:30:14;;;;;;;;;1.00;1.00;;;;;-143.90;52.17;75095.72;4955083;28;102836;-77